createdAt,value
2023-01-17T00:00:33.219Z,4.93
2023-01-17T00:02:59.642Z,4.75
2023-01-17T00:05:44.652Z,4.75
2023-01-17T00:08:32.411Z,4.57
2023-01-17T00:10:59.141Z,4.40
2023-01-17T00:13:25.563Z,4.43
2023-01-17T00:15:52.160Z,4.95
2023-01-17T00:18:18.701Z,5.38
2023-01-17T00:21:03.665Z,5.03
2023-01-17T00:23:41.901Z,4.63
2023-01-17T00:26:18.307Z,5.70
2023-01-17T00:28:45.422Z,6.85
2023-01-17T00:31:13.007Z,5.75
2023-01-17T00:33:39.712Z,6.40
2023-01-17T00:36:07.353Z,6.68
2023-01-17T00:38:36.469Z,5.28
2023-01-17T00:41:07.936Z,4.40
2023-01-17T00:43:53.446Z,5.43
2023-01-17T00:46:39.312Z,5.43
2023-01-17T00:49:28.209Z,5.05
2023-01-17T00:52:12.950Z,4.35
2023-01-17T00:54:57.747Z,5.03
2023-01-17T00:57:42.887Z,4.97
2023-01-17T01:00:28.330Z,4.72
2023-01-17T01:03:13.170Z,4.40
2023-01-17T01:05:57.891Z,5.47
2023-01-17T01:08:45.598Z,5.80
2023-01-17T01:11:36.449Z,5.13
2023-01-17T01:14:22.389Z,5.63
2023-01-17T01:17:07.512Z,5.40
2023-01-17T01:19:52.345Z,5.82
2023-01-17T01:22:37.471Z,4.65
2023-01-17T01:25:22.797Z,4.90
2023-01-17T01:28:07.567Z,4.32
2023-01-17T01:30:52.398Z,7.00
2023-01-17T01:33:18.837Z,4.93
2023-01-17T01:35:53.879Z,4.43
2023-01-17T01:38:22.706Z,4.80
2023-01-17T01:40:56.691Z,6.35
2023-01-17T01:43:51.765Z,4.75
2023-01-17T01:46:24.100Z,4.50
2023-01-17T01:49:01.581Z,4.80
2023-01-17T01:51:34.811Z,4.53
2023-01-17T01:54:07.423Z,4.93
2023-01-17T01:56:34.590Z,4.63
2023-01-17T01:59:04.248Z,7.25
2023-01-17T02:01:31.897Z,4.80
2023-01-17T02:03:58.626Z,5.07
2023-01-17T02:06:25.030Z,5.05
2023-01-17T02:08:52.014Z,4.65
2023-01-17T02:11:18.944Z,5.20
2023-01-17T02:13:45.320Z,4.90
2023-01-17T02:16:33.460Z,4.57
2023-01-17T02:19:18.259Z,5.25
2023-01-17T02:22:15.775Z,5.43
2023-01-17T02:25:06.918Z,5.03
2023-01-17T02:28:15.585Z,4.38
2023-01-17T02:30:48.261Z,5.32
2023-01-17T02:33:18.978Z,4.63
2023-01-17T02:35:56.136Z,4.80
2023-01-17T02:38:41.097Z,4.93
2023-01-17T02:41:16.188Z,4.70
2023-01-17T02:43:43.138Z,4.88
2023-01-17T02:46:09.977Z,4.65
2023-01-17T02:48:37.776Z,4.38
2023-01-17T02:51:07.260Z,6.65
2023-01-17T02:53:49.913Z,4.45
2023-01-17T02:56:36.373Z,4.63
2023-01-17T02:59:32.666Z,4.97
2023-01-17T03:02:11.039Z,4.75
2023-01-17T03:04:48.126Z,4.78
2023-01-17T03:07:19.674Z,4.95
2023-01-17T03:09:49.387Z,4.90
2023-01-17T03:12:15.769Z,5.50
2023-01-17T03:14:42.212Z,4.65
2023-01-17T03:17:09.094Z,5.15
2023-01-17T03:19:35.532Z,5.05
2023-01-17T03:22:01.893Z,6.07
2023-01-17T03:24:28.701Z,6.03
2023-01-17T03:26:55.160Z,5.43
2023-01-17T03:29:21.545Z,5.18
2023-01-17T03:31:47.941Z,5.57
2023-01-17T03:34:14.319Z,4.38
2023-01-17T03:36:40.768Z,5.35
2023-01-17T03:39:07.186Z,5.10
2023-01-17T03:41:33.647Z,5.50
2023-01-17T03:44:00.880Z,5.75
2023-01-17T03:46:28.901Z,6.38
2023-01-17T03:48:55.563Z,4.40
2023-01-17T03:51:22.292Z,5.32
2023-01-17T03:53:50.011Z,5.43
2023-01-17T03:56:16.562Z,4.80
2023-01-17T03:58:43.252Z,5.15
2023-01-17T04:01:09.782Z,4.47
2023-01-17T04:03:36.261Z,5.43
2023-01-17T04:06:02.670Z,4.57
2023-01-17T04:08:29.409Z,4.88
2023-01-17T04:10:56.001Z,5.00
2023-01-17T04:13:22.470Z,4.68
2023-01-17T04:15:51.018Z,4.88
2023-01-17T04:18:19.465Z,4.72
2023-01-17T04:20:45.928Z,4.43
2023-01-17T04:23:12.584Z,4.35
2023-01-17T04:25:39.222Z,4.53
2023-01-17T04:28:06.158Z,4.25
2023-01-17T04:30:33.009Z,4.15
2023-01-17T04:32:59.801Z,4.10
2023-01-17T04:35:26.288Z,5.32
2023-01-17T04:37:52.988Z,3.95
2023-01-17T04:40:19.546Z,5.00
2023-01-17T04:42:46.072Z,4.32
2023-01-17T04:45:12.792Z,4.65
2023-01-17T04:47:39.248Z,4.90
2023-01-17T04:50:06.620Z,5.32
2023-01-17T04:52:33.099Z,4.43
2023-01-17T04:54:59.750Z,4.30
2023-01-17T04:57:26.292Z,4.32
2023-01-17T04:59:53.597Z,4.10
2023-01-17T05:02:20.457Z,4.32
2023-01-17T05:04:46.952Z,4.43
2023-01-17T05:07:13.610Z,4.38
2023-01-17T05:09:40.036Z,4.68
2023-01-17T05:12:06.521Z,4.63
2023-01-17T05:14:34.382Z,5.32
2023-01-17T05:17:03.092Z,5.43
2023-01-17T05:19:29.655Z,5.28
2023-01-17T05:21:56.105Z,4.88
2023-01-17T05:24:22.609Z,5.32
2023-01-17T05:26:54.718Z,5.43
2023-01-17T05:29:21.864Z,5.35
2023-01-17T05:31:48.433Z,5.80
2023-01-17T05:34:14.889Z,5.40
2023-01-17T05:36:41.284Z,6.05
2023-01-17T05:39:07.730Z,5.88
2023-01-17T05:41:34.148Z,6.25
2023-01-17T05:44:04.076Z,6.10
2023-01-17T05:46:30.679Z,5.82
2023-01-17T05:48:57.102Z,6.45
2023-01-17T05:51:23.580Z,6.30
2023-01-17T05:53:50.059Z,6.25
2023-01-17T05:56:16.456Z,6.47
2023-01-17T05:58:42.973Z,6.95
2023-01-17T06:01:09.430Z,8.18
2023-01-17T06:03:35.883Z,7.55
2023-01-17T06:06:02.340Z,7.35
2023-01-17T06:08:28.758Z,7.85
2023-01-17T06:10:58.138Z,8.73
2023-01-17T06:13:24.552Z,9.00
2023-01-17T06:15:51.024Z,8.98
2023-01-17T06:18:18.258Z,9.00
2023-01-17T06:20:44.934Z,9.30
2023-01-17T06:23:13.422Z,10.15
2023-01-17T06:25:43.718Z,9.38
2023-01-17T06:28:12.093Z,9.73
2023-01-17T06:30:38.841Z,11.32
2023-01-17T06:33:05.583Z,10.57
2023-01-17T06:35:32.539Z,11.13
2023-01-17T06:38:00.382Z,9.93
2023-01-17T06:40:30.658Z,11.07
2023-01-17T06:43:01.780Z,11.18
2023-01-17T06:45:29.864Z,10.60
2023-01-17T06:47:56.438Z,10.18
2023-01-17T06:50:23.220Z,10.45
2023-01-17T06:52:58.437Z,9.95
2023-01-17T06:55:28.748Z,9.52
2023-01-17T06:57:57.146Z,9.05
2023-01-17T07:00:23.828Z,9.40
2023-01-17T07:02:50.966Z,8.68
2023-01-17T07:05:17.449Z,9.05
2023-01-17T07:07:45.336Z,9.13
2023-01-17T07:10:13.590Z,9.23
2023-01-17T07:12:40.207Z,8.90
2023-01-17T07:15:07.757Z,9.07
2023-01-17T07:17:34.961Z,8.40
2023-01-17T07:20:01.600Z,9.80
2023-01-17T07:22:27.992Z,9.73
2023-01-17T07:24:58.523Z,10.48
2023-01-17T07:27:30.510Z,11.70
2023-01-17T07:29:57.614Z,11.55
2023-01-17T07:32:25.985Z,12.50
2023-01-17T07:34:52.605Z,10.48
2023-01-17T07:37:20.056Z,9.05
2023-01-17T07:39:47.002Z,8.77
2023-01-17T07:42:13.464Z,7.43
2023-01-17T07:44:43.884Z,7.25
2023-01-17T07:49:37.188Z,4.90
2023-01-17T07:52:06.323Z,3.90
2023-01-17T07:54:32.775Z,3.78
2023-01-17T07:56:59.176Z,3.70
2023-01-17T07:59:25.625Z,5.63
2023-01-17T08:01:52.241Z,3.75
2023-01-17T08:04:18.747Z,3.65
2023-01-17T08:06:47.626Z,3.67
2023-01-17T08:09:14.243Z,3.60
2023-01-17T08:11:40.652Z,3.58
2023-01-17T08:14:07.045Z,3.70
2023-01-17T08:16:33.511Z,3.45
2023-01-17T08:18:59.957Z,3.00
2023-01-17T08:21:26.521Z,3.03
2023-01-17T08:23:53.274Z,2.50
2023-01-17T08:26:22.290Z,2.40
2023-01-17T08:28:55.586Z,2.45
2023-01-17T08:31:22.488Z,2.65
2023-01-17T08:33:48.912Z,2.30
2023-01-17T08:36:15.358Z,2.20
2023-01-17T08:38:41.749Z,2.05
2023-01-17T08:41:08.172Z,2.20
2023-01-17T08:43:34.586Z,2.20
2023-01-17T08:46:01.135Z,2.20
2023-01-17T08:48:27.732Z,2.30
2023-01-17T08:50:54.130Z,2.22
2023-01-17T08:53:23.102Z,2.10
2023-01-17T08:55:57.479Z,2.20
2023-01-17T08:58:23.931Z,2.50
2023-01-17T09:00:50.495Z,2.15
2023-01-17T09:03:19.855Z,2.00
2023-01-17T09:05:46.293Z,2.80
2023-01-17T09:08:12.692Z,3.08
2023-01-17T09:10:39.109Z,2.83
2023-01-17T09:13:06.923Z,2.70
2023-01-17T09:15:33.411Z,2.10
2023-01-17T09:18:01.577Z,2.35
2023-01-17T09:20:30.164Z,2.67
2023-01-17T09:22:57.159Z,2.40
2023-01-17T09:25:23.545Z,2.30
2023-01-17T09:27:50.306Z,2.20
2023-01-17T09:30:17.150Z,2.22
2023-01-17T09:32:43.657Z,2.60
2023-01-17T09:35:10.154Z,3.75
2023-01-17T09:37:36.936Z,3.38
2023-01-17T09:40:03.820Z,3.30
2023-01-17T09:42:35.671Z,2.67
2023-01-17T09:45:02.393Z,3.22
2023-01-17T09:47:41.316Z,3.25
2023-01-17T09:50:17.017Z,3.08
2023-01-17T09:52:43.881Z,5.78
2023-01-17T09:55:15.272Z,4.55
2023-01-17T09:57:44.884Z,4.18
2023-01-17T10:00:20.500Z,6.32
2023-01-17T10:03:45.695Z,4.75
2023-01-17T10:06:21.454Z,4.95
2023-01-17T10:09:15.881Z,5.72
2023-01-17T10:12:09.885Z,5.72
2023-01-17T10:14:54.682Z,6.20
2023-01-17T10:17:46.405Z,7.80
2023-01-17T10:20:24.411Z,6.68
2023-01-17T10:23:18.049Z,7.57
2023-01-17T10:25:52.441Z,5.10
2023-01-17T10:28:36.614Z,7.18
2023-01-17T10:31:10.518Z,7.15
2023-01-17T10:33:48.379Z,6.28
2023-01-17T10:36:20.627Z,5.43
2023-01-17T10:38:49.507Z,7.57
2023-01-17T10:41:28.267Z,5.70
2023-01-17T10:44:22.586Z,6.70
2023-01-17T10:47:03.541Z,5.20
2023-01-17T10:49:30.654Z,4.75
2023-01-17T10:52:12.932Z,6.40
2023-01-17T10:54:51.404Z,5.00
2023-01-17T10:57:27.679Z,5.57
2023-01-17T10:59:59.754Z,5.50
2023-01-17T11:02:30.009Z,7.45
2023-01-17T11:04:57.951Z,4.80
2023-01-17T11:07:29.038Z,5.60
2023-01-17T11:09:57.842Z,6.72
2023-01-17T11:12:29.770Z,5.90
2023-01-17T11:15:01.088Z,6.03
2023-01-17T11:17:28.644Z,5.00
2023-01-17T11:20:07.972Z,5.15
2023-01-17T11:22:35.295Z,5.95
2023-01-17T11:25:02.529Z,5.05
2023-01-17T11:27:35.026Z,5.40
2023-01-17T11:30:15.880Z,5.85
2023-01-17T11:32:54.747Z,5.88
2023-01-17T11:35:25.675Z,5.53
2023-01-17T11:37:52.075Z,7.82
2023-01-17T11:40:24.085Z,4.70
2023-01-17T11:43:01.661Z,5.60
2023-01-17T11:45:30.674Z,6.10
2023-01-17T11:48:11.991Z,7.57
2023-01-17T11:50:44.305Z,4.75
2023-01-17T11:53:16.526Z,6.20
2023-01-17T11:55:53.422Z,7.28
2023-01-17T11:58:20.846Z,6.80
2023-01-17T12:00:53.643Z,5.60
2023-01-17T12:03:49.111Z,7.80
2023-01-17T12:06:23.229Z,7.22
2023-01-17T12:09:22.845Z,5.63
2023-01-17T12:12:41.746Z,6.77
2023-01-17T12:15:30.198Z,5.65
2023-01-17T12:18:19.202Z,7.13
2023-01-17T12:20:55.765Z,7.32
2023-01-17T12:23:50.234Z,7.53
2023-01-17T12:26:28.865Z,9.82
2023-01-17T12:29:23.033Z,5.82
2023-01-17T12:32:24.817Z,8.77
2023-01-17T12:35:01.852Z,6.57
2023-01-17T12:37:40.762Z,7.72
2023-01-17T12:40:07.400Z,6.65
2023-01-17T12:42:40.690Z,8.73
2023-01-17T12:45:36.129Z,5.25
2023-01-17T12:48:09.747Z,6.60
2023-01-17T12:50:41.031Z,4.90
2023-01-17T12:53:26.344Z,5.22
2023-01-17T12:56:06.240Z,5.68
2023-01-17T12:58:43.145Z,4.10
2023-01-17T13:01:21.839Z,4.57
2023-01-17T13:04:13.333Z,5.03
2023-01-17T13:06:52.020Z,5.10
2023-01-17T13:09:22.283Z,4.90
2023-01-17T13:11:55.365Z,4.32
2023-01-17T13:14:21.883Z,4.18
2023-01-17T13:16:48.411Z,4.30
2023-01-17T13:19:25.410Z,5.43
2023-01-17T13:21:52.650Z,4.22
2023-01-17T13:24:25.939Z,4.13
2023-01-17T13:26:55.349Z,3.60
2023-01-17T13:29:49.751Z,4.88
2023-01-17T13:32:44.760Z,3.80
2023-01-17T13:35:17.122Z,4.18
2023-01-17T13:38:24.945Z,4.60
2023-01-17T13:40:55.814Z,3.92
2023-01-17T13:43:30.256Z,3.65
2023-01-17T13:45:59.381Z,4.13
2023-01-17T13:48:29.217Z,5.18
2023-01-17T13:51:00.796Z,3.55
2023-01-17T13:53:27.186Z,4.07
2023-01-17T13:56:19.406Z,5.90
2023-01-17T13:58:50.262Z,3.63
2023-01-17T14:01:22.643Z,3.85
2023-01-17T14:03:49.145Z,3.45
2023-01-17T14:06:34.391Z,3.47
2023-01-17T14:09:13.027Z,6.75
2023-01-17T14:12:08.727Z,4.50
2023-01-17T14:14:41.629Z,6.47
2023-01-17T14:17:25.429Z,4.50
2023-01-17T14:19:54.367Z,3.65
2023-01-17T14:22:20.826Z,4.43
2023-01-17T14:25:09.886Z,4.30
2023-01-17T14:28:00.273Z,3.28
2023-01-17T14:30:29.357Z,4.10
2023-01-17T14:33:23.020Z,4.47
2023-01-17T14:35:56.037Z,4.45
2023-01-17T14:38:28.753Z,3.63
2023-01-17T14:41:22.708Z,4.55
2023-01-17T14:43:50.785Z,4.50
2023-01-17T14:46:25.164Z,3.70
2023-01-17T14:48:59.138Z,4.55
2023-01-17T14:51:25.768Z,3.15
2023-01-17T14:53:54.439Z,4.93
2023-01-17T14:56:20.981Z,5.13
2023-01-17T14:58:47.592Z,3.05
2023-01-17T15:01:17.863Z,4.45
2023-01-17T15:06:29.999Z,4.78
2023-01-17T15:08:57.454Z,3.40
2023-01-17T15:11:26.678Z,3.92
2023-01-17T15:13:57.428Z,4.32
2023-01-17T15:16:34.086Z,3.20
2023-01-17T15:19:01.542Z,4.80
2023-01-17T15:21:40.438Z,4.28
2023-01-17T15:24:08.856Z,5.45
2023-01-17T15:26:39.694Z,3.28
2023-01-17T15:29:08.144Z,3.30
2023-01-17T15:31:48.222Z,3.47
2023-01-17T15:34:25.895Z,4.80
2023-01-17T15:36:53.594Z,3.00
2023-01-17T15:39:38.727Z,3.67
2023-01-17T15:42:19.109Z,3.97
2023-01-17T15:44:48.959Z,3.55
2023-01-17T15:47:39.060Z,3.08
2023-01-17T15:50:39.727Z,3.63
2023-01-17T15:53:27.797Z,3.90
2023-01-17T15:55:54.458Z,3.58
2023-01-17T15:58:27.958Z,2.97
2023-01-17T16:00:54.809Z,4.40
2023-01-17T16:03:30.760Z,3.17
2023-01-17T16:06:00.235Z,4.68
2023-01-17T16:08:39.657Z,3.17
2023-01-17T16:11:07.964Z,3.33
2023-01-17T16:13:38.661Z,2.83
2023-01-17T16:16:22.759Z,2.70
2023-01-17T16:18:57.667Z,3.88
2023-01-17T16:21:29.807Z,2.97
2023-01-17T16:23:56.518Z,3.03
2023-01-17T16:26:23.897Z,4.75
2023-01-17T16:28:50.368Z,3.80
2023-01-17T16:31:18.401Z,3.90
2023-01-17T16:33:45.975Z,2.60
2023-01-17T16:36:16.654Z,3.53
2023-01-17T16:38:45.141Z,3.03
2023-01-17T16:41:11.834Z,4.03
2023-01-17T16:43:38.435Z,5.18
2023-01-17T16:46:05.942Z,3.85
2023-01-17T16:48:32.393Z,3.70
2023-01-17T16:50:59.371Z,3.30
2023-01-17T16:53:28.182Z,3.78
2023-01-17T16:55:57.488Z,5.18
2023-01-17T16:58:24.046Z,4.25
2023-01-17T17:00:50.522Z,4.30
2023-01-17T17:03:19.682Z,3.65
2023-01-17T17:05:58.542Z,3.58
2023-01-17T17:08:25.127Z,3.03
2023-01-17T17:10:51.861Z,3.70
2023-01-17T17:13:18.322Z,4.25
2023-01-17T17:15:44.905Z,4.60
2023-01-17T17:18:16.649Z,5.95
2023-01-17T17:20:43.785Z,4.05
2023-01-17T17:23:10.823Z,4.38
2023-01-17T17:25:37.902Z,6.88
2023-01-17T17:28:05.669Z,3.75
2023-01-17T17:30:32.211Z,5.63
2023-01-17T17:32:58.653Z,4.43
2023-01-17T17:35:25.067Z,3.30
2023-01-17T17:37:51.592Z,3.65
2023-01-17T17:40:18.154Z,5.28
2023-01-17T17:42:44.864Z,3.90
2023-01-17T17:45:11.539Z,3.78
2023-01-17T17:47:37.921Z,4.50
2023-01-17T17:50:04.621Z,4.32
2023-01-17T17:52:32.355Z,5.53
2023-01-17T17:54:58.846Z,3.90
2023-01-17T17:57:25.247Z,4.10
2023-01-17T17:59:51.650Z,5.57
2023-01-17T18:02:18.076Z,4.93
2023-01-17T18:04:44.510Z,4.72
2023-01-17T18:07:10.960Z,4.32
2023-01-17T18:09:37.330Z,4.75
2023-01-17T18:12:04.049Z,5.30
2023-01-17T18:14:30.530Z,4.07
2023-01-17T18:16:57.305Z,4.40
2023-01-17T18:19:25.624Z,4.40
2023-01-17T18:21:52.894Z,5.50
2023-01-17T18:24:21.498Z,5.30
2023-01-17T18:26:51.985Z,7.18
2023-01-17T18:29:20.800Z,4.35
2023-01-17T18:31:50.112Z,6.60
2023-01-17T18:34:23.851Z,5.30
2023-01-17T18:36:51.760Z,5.63
2023-01-17T18:39:27.210Z,5.22
2023-01-17T18:41:54.679Z,5.90
2023-01-17T18:44:23.188Z,8.32
2023-01-17T18:46:52.407Z,6.63
2023-01-17T18:49:21.641Z,5.95
2023-01-17T18:51:51.089Z,5.78
2023-01-17T18:54:19.272Z,9.40
2023-01-17T18:56:45.753Z,5.78
2023-01-17T18:59:13.730Z,6.13
2023-01-17T19:01:43.938Z,8.70
2023-01-17T19:04:12.553Z,6.03
2023-01-17T19:06:41.666Z,5.85
2023-01-17T19:09:08.970Z,11.02
2023-01-17T19:11:36.655Z,5.15
2023-01-17T19:14:03.260Z,5.88
2023-01-17T19:16:31.903Z,5.05
2023-01-17T19:19:02.659Z,5.43
2023-01-17T19:21:29.706Z,7.03
2023-01-17T19:23:57.262Z,5.32
2023-01-17T19:26:25.478Z,7.50
2023-01-17T19:28:51.943Z,6.80
2023-01-17T19:31:24.472Z,7.00
2023-01-17T19:33:53.494Z,8.55
2023-01-17T19:36:23.431Z,8.25
2023-01-17T19:39:03.492Z,7.90
2023-01-17T19:41:31.827Z,8.25
2023-01-17T19:44:00.177Z,8.68
2023-01-17T19:46:27.468Z,6.45
2023-01-17T19:48:55.384Z,6.88
2023-01-17T19:51:22.254Z,9.10
2023-01-17T19:53:48.694Z,6.97
2023-01-17T19:56:18.125Z,10.65
2023-01-17T19:58:45.911Z,7.50
2023-01-17T20:01:16.921Z,6.45
2023-01-17T20:03:44.640Z,6.63
2023-01-17T20:06:14.384Z,10.00
2023-01-17T20:08:41.246Z,8.50
2023-01-17T20:11:11.291Z,8.52
2023-01-17T20:13:37.716Z,7.97
2023-01-17T20:16:05.698Z,8.07
2023-01-17T20:18:33.435Z,9.55
2023-01-17T20:21:04.769Z,6.43
2023-01-17T20:23:36.335Z,8.63
2023-01-17T20:26:04.661Z,8.13
2023-01-17T20:28:36.763Z,7.95
2023-01-17T20:31:12.538Z,11.40
2023-01-17T20:33:40.721Z,12.60
2023-01-17T20:36:11.231Z,9.70
2023-01-17T20:38:44.926Z,9.00
2023-01-17T20:41:22.960Z,9.80
2023-01-17T20:43:54.997Z,8.95
2023-01-17T20:46:23.614Z,9.75
2023-01-17T20:48:51.985Z,8.75
2023-01-17T20:51:19.342Z,7.53
2023-01-17T20:53:50.269Z,9.75
2023-01-17T20:56:17.236Z,8.85
2023-01-17T20:58:43.929Z,8.82
2023-01-17T21:01:12.265Z,8.98
2023-01-17T21:03:39.808Z,9.60
2023-01-17T21:06:09.383Z,7.35
2023-01-17T21:08:37.771Z,8.15
2023-01-17T21:11:05.074Z,8.35
2023-01-17T21:13:31.799Z,9.95
2023-01-17T21:15:58.466Z,10.40
2023-01-17T21:18:25.983Z,10.30
2023-01-17T21:20:52.703Z,10.75
2023-01-17T21:23:20.031Z,9.00
2023-01-17T21:25:54.789Z,8.75
2023-01-17T21:28:26.975Z,9.02
2023-01-17T21:30:54.126Z,7.32
2023-01-17T21:33:21.808Z,10.00
2023-01-17T21:35:48.826Z,9.75
2023-01-17T21:38:15.635Z,9.75
2023-01-17T21:40:43.351Z,9.77
2023-01-17T21:43:10.210Z,11.43
2023-01-17T21:45:38.147Z,10.68
2023-01-17T21:48:05.373Z,10.32
2023-01-17T21:50:33.677Z,11.52
2023-01-17T21:53:00.360Z,8.90
2023-01-17T21:55:45.490Z,9.88
2023-01-17T21:58:31.662Z,9.05
2023-01-17T22:01:07.826Z,11.57
2023-01-17T22:03:35.684Z,8.60
2023-01-17T22:06:02.214Z,10.68
2023-01-17T22:08:33.063Z,9.23
2023-01-17T22:11:07.621Z,10.75
2023-01-17T22:13:35.810Z,8.90
2023-01-17T22:16:05.263Z,10.45
2023-01-17T22:18:35.980Z,10.47
2023-01-17T22:21:08.479Z,10.35
2023-01-17T22:23:35.354Z,11.10
2023-01-17T22:26:07.641Z,8.77
2023-01-17T22:28:34.362Z,8.85
2023-01-17T22:31:23.735Z,9.32
2023-01-17T22:33:55.541Z,10.45
2023-01-17T22:36:22.629Z,10.07
2023-01-17T22:38:49.387Z,9.77
2023-01-17T22:41:19.951Z,11.05
2023-01-17T22:43:51.390Z,10.85
2023-01-17T22:46:23.088Z,12.55
2023-01-17T22:48:49.763Z,10.23
2023-01-17T22:51:18.008Z,9.45
2023-01-17T22:53:47.241Z,11.55
2023-01-17T22:56:22.647Z,9.25
2023-01-17T22:58:49.381Z,10.70
2023-01-17T23:01:19.639Z,8.98
2023-01-17T23:03:51.767Z,9.88
2023-01-17T23:06:21.235Z,11.45
2023-01-17T23:08:51.118Z,9.77
2023-01-17T23:11:41.322Z,10.25
2023-01-17T23:14:10.773Z,11.50
2023-01-17T23:16:57.296Z,12.70
2023-01-17T23:19:24.767Z,10.90
2023-01-17T23:22:15.333Z,12.05
2023-01-17T23:24:44.258Z,13.52
2023-01-17T23:27:39.952Z,13.00
2023-01-17T23:30:12.615Z,13.55
2023-01-17T23:32:40.563Z,12.13
2023-01-17T23:35:07.282Z,14.30
2023-01-17T23:37:52.225Z,10.55
2023-01-17T23:40:19.299Z,13.73
2023-01-17T23:43:04.293Z,12.68
2023-01-17T23:45:33.660Z,13.35
2023-01-17T23:48:01.350Z,13.98
2023-01-17T23:50:28.069Z,12.43
2023-01-17T23:52:54.566Z,13.13
2023-01-17T23:55:21.090Z,13.77
2023-01-17T23:57:49.553Z,11.90
